createdAt,value
2023-03-03T00:01:11.370Z,74.24
2023-03-03T00:03:40.168Z,73.78
2023-03-03T00:06:12.415Z,73.89
2023-03-03T00:08:41.416Z,73.95
2023-03-03T00:11:10.501Z,74.02
2023-03-03T00:13:46.651Z,73.85
2023-03-03T00:16:25.392Z,73.91
2023-03-03T00:18:54.910Z,74.08
2023-03-03T00:21:30.289Z,73.87
2023-03-03T00:24:16.821Z,73.91
2023-03-03T00:26:47.296Z,74.22
2023-03-03T00:29:35.709Z,74.20
2023-03-03T00:32:29.007Z,74.30
2023-03-03T00:35:09.750Z,74.23
2023-03-03T00:37:42.298Z,73.92
2023-03-03T00:40:25.696Z,74.00
2023-03-03T00:42:55.481Z,74.17
2023-03-03T00:45:33.027Z,74.41
2023-03-03T00:48:18.201Z,74.29
2023-03-03T00:50:46.838Z,74.41
2023-03-03T00:53:18.219Z,74.64
2023-03-03T00:55:47.809Z,74.70
2023-03-03T00:58:18.546Z,74.29
2023-03-03T01:00:46.888Z,74.30
2023-03-03T01:03:17.299Z,74.30
2023-03-03T01:05:45.807Z,74.73
2023-03-03T01:08:14.559Z,74.76
2023-03-03T01:10:47.543Z,74.78
2023-03-03T01:13:16.168Z,74.82
2023-03-03T01:15:45.055Z,74.69
2023-03-03T01:18:13.848Z,74.61
2023-03-03T01:20:42.232Z,74.81
2023-03-03T01:23:10.549Z,75.07
2023-03-03T01:25:39.062Z,74.79
2023-03-03T01:28:10.583Z,74.93
2023-03-03T01:30:38.965Z,75.17
2023-03-03T01:33:07.442Z,74.93
2023-03-03T01:35:36.894Z,75.18
2023-03-03T01:38:05.216Z,75.00
2023-03-03T01:40:33.985Z,75.40
2023-03-03T01:43:02.321Z,75.41
2023-03-03T01:45:43.246Z,75.24
2023-03-03T01:48:25.456Z,75.30
2023-03-03T01:50:58.822Z,75.35
2023-03-03T01:53:34.666Z,75.33
2023-03-03T01:56:04.656Z,75.41
2023-03-03T01:58:36.969Z,75.51
2023-03-03T02:01:08.574Z,75.53
2023-03-03T02:03:38.569Z,75.28
2023-03-03T02:06:10.993Z,75.21
2023-03-03T02:08:46.581Z,75.33
2023-03-03T02:11:16.153Z,75.55
2023-03-03T02:13:44.469Z,75.23
2023-03-03T02:16:12.971Z,75.45
2023-03-03T02:18:42.836Z,75.37
2023-03-03T02:21:13.567Z,75.33
2023-03-03T02:23:50.690Z,75.70
2023-03-03T02:26:23.545Z,75.73
2023-03-03T02:28:53.012Z,75.38
2023-03-03T02:31:23.622Z,75.38
2023-03-03T02:33:54.179Z,75.86
2023-03-03T02:36:24.676Z,75.71
2023-03-03T02:39:00.527Z,75.73
2023-03-03T02:41:36.150Z,76.16
2023-03-03T02:44:07.138Z,76.02
2023-03-03T02:46:37.695Z,76.06
2023-03-03T02:49:08.293Z,75.64
2023-03-03T02:51:36.777Z,75.94
2023-03-03T02:54:06.473Z,75.96
2023-03-03T02:56:36.785Z,75.79
2023-03-03T02:59:05.512Z,75.55
2023-03-03T03:01:37.159Z,75.69
2023-03-03T03:04:09.596Z,75.92
2023-03-03T03:06:38.525Z,75.74
2023-03-03T03:09:09.752Z,76.05
2023-03-03T03:11:40.181Z,75.83
2023-03-03T03:14:10.048Z,75.87
2023-03-03T03:16:42.104Z,75.95
2023-03-03T03:19:10.676Z,76.05
2023-03-03T03:21:39.280Z,76.42
2023-03-03T03:24:08.428Z,76.11
2023-03-03T03:26:36.743Z,76.29
2023-03-03T03:29:07.701Z,76.52
2023-03-03T03:31:36.107Z,76.42
2023-03-03T03:34:04.518Z,76.30
2023-03-03T03:36:32.835Z,76.63
2023-03-03T03:39:02.956Z,76.11
2023-03-03T03:41:31.267Z,76.03
2023-03-03T03:43:59.614Z,76.38
2023-03-03T03:46:29.356Z,76.27
2023-03-03T03:48:57.683Z,76.19
2023-03-03T03:51:25.980Z,76.82
2023-03-03T03:53:54.372Z,76.85
2023-03-03T03:56:22.681Z,76.44
2023-03-03T03:58:50.943Z,76.84
2023-03-03T04:01:19.421Z,76.34
2023-03-03T04:03:51.140Z,76.53
2023-03-03T04:06:19.489Z,76.78
2023-03-03T04:08:47.845Z,76.43
2023-03-03T04:11:16.482Z,76.39
2023-03-03T04:13:44.980Z,76.97
2023-03-03T04:16:13.380Z,76.77
2023-03-03T04:18:46.134Z,76.32
2023-03-03T04:21:16.979Z,76.86
2023-03-03T04:23:45.343Z,76.82
2023-03-03T04:26:13.711Z,76.37
2023-03-03T04:28:42.067Z,76.50
2023-03-03T04:31:10.663Z,76.31
2023-03-03T04:33:39.086Z,76.54
2023-03-03T04:36:07.770Z,76.65
2023-03-03T04:38:37.468Z,76.17
2023-03-03T04:41:06.121Z,76.37
2023-03-03T04:43:34.461Z,76.32
2023-03-03T04:46:03.058Z,76.61
2023-03-03T04:48:31.485Z,76.68
2023-03-03T04:50:59.840Z,76.41
2023-03-03T04:53:28.315Z,76.71
2023-03-03T04:55:58.038Z,76.38
2023-03-03T04:58:26.436Z,76.54
2023-03-03T05:00:56.076Z,76.63
2023-03-03T05:03:25.061Z,76.25
2023-03-03T05:05:53.897Z,76.53
2023-03-03T05:08:22.303Z,76.86
2023-03-03T05:10:53.522Z,76.83
2023-03-03T05:13:23.594Z,77.01
2023-03-03T05:15:52.750Z,77.01
2023-03-03T05:18:21.436Z,77.17
2023-03-03T05:20:50.826Z,76.73
2023-03-03T05:23:19.541Z,76.67
2023-03-03T05:25:49.076Z,77.18
2023-03-03T05:28:18.286Z,76.80
2023-03-03T05:30:48.183Z,76.89
2023-03-03T05:33:18.388Z,77.26
2023-03-03T05:35:46.873Z,77.49
2023-03-03T05:38:17.341Z,77.77
2023-03-03T05:40:45.755Z,77.12
2023-03-03T05:43:14.053Z,77.75
2023-03-03T05:45:44.880Z,77.77
2023-03-03T05:48:14.732Z,77.69
2023-03-03T05:50:43.148Z,77.65
2023-03-03T05:53:11.531Z,77.37
2023-03-03T05:55:40.022Z,78.10
2023-03-03T05:58:08.755Z,77.97
2023-03-03T06:00:38.377Z,77.70
2023-03-03T06:03:06.874Z,77.63
2023-03-03T06:05:36.569Z,77.59
2023-03-03T06:08:05.393Z,77.61
2023-03-03T06:10:33.858Z,77.81
2023-03-03T06:13:02.192Z,77.93
2023-03-03T06:15:30.591Z,77.90
2023-03-03T06:17:58.966Z,77.71
2023-03-03T06:20:27.481Z,77.87
2023-03-03T06:22:57.205Z,78.38
2023-03-03T06:25:25.684Z,77.95
2023-03-03T06:27:54.002Z,78.26
2023-03-03T06:30:22.570Z,77.91
2023-03-03T06:32:51.188Z,78.00
2023-03-03T06:35:19.806Z,78.15
2023-03-03T06:37:50.775Z,78.27
2023-03-03T06:40:20.841Z,78.27
2023-03-03T06:42:49.254Z,78.12
2023-03-03T06:45:17.993Z,78.11
2023-03-03T06:47:46.643Z,78.06
2023-03-03T06:50:18.050Z,78.22
2023-03-03T06:52:46.607Z,78.20
2023-03-03T06:55:22.497Z,78.05
2023-03-03T06:57:53.987Z,78.33
2023-03-03T07:00:26.310Z,77.85
2023-03-03T07:03:00.381Z,78.31
2023-03-03T07:05:30.096Z,78.24
2023-03-03T07:07:58.578Z,78.40
2023-03-03T07:10:29.158Z,78.12
2023-03-03T07:13:13.919Z,77.94
2023-03-03T07:15:42.250Z,77.88
2023-03-03T07:18:35.718Z,78.42
2023-03-03T07:21:15.820Z,78.49
2023-03-03T07:23:46.075Z,78.49
2023-03-03T07:26:17.090Z,78.39
2023-03-03T07:28:54.582Z,78.56
2023-03-03T07:31:32.585Z,77.98
2023-03-03T07:34:02.463Z,78.47
2023-03-03T07:36:35.439Z,78.69
2023-03-03T07:39:25.688Z,78.03
2023-03-03T07:41:55.729Z,78.42
2023-03-03T07:44:35.644Z,78.53
2023-03-03T07:47:18.435Z,78.21
2023-03-03T07:49:48.356Z,78.67
2023-03-03T07:52:40.888Z,78.46
2023-03-03T07:55:26.672Z,78.85
2023-03-03T07:57:59.174Z,78.43
2023-03-03T08:01:15.488Z,78.94
2023-03-03T08:03:46.872Z,78.46
2023-03-03T08:06:47.903Z,78.88
2023-03-03T08:09:38.262Z,78.82
2023-03-03T08:12:41.755Z,78.24
2023-03-03T08:15:23.002Z,78.28
2023-03-03T08:17:53.688Z,78.00
2023-03-03T08:20:48.347Z,78.14
2023-03-03T08:23:18.409Z,78.00
2023-03-03T08:25:49.376Z,77.85
2023-03-03T08:28:18.588Z,77.82
2023-03-03T08:30:47.219Z,78.53
2023-03-03T08:33:16.624Z,78.36
2023-03-03T08:35:46.061Z,78.28
2023-03-03T08:38:18.156Z,78.17
2023-03-03T08:40:47.744Z,78.32
2023-03-03T08:43:17.426Z,78.21
2023-03-03T08:45:46.623Z,78.41
2023-03-03T08:48:15.410Z,78.22
2023-03-03T08:50:44.867Z,78.64
2023-03-03T08:53:15.716Z,78.36
2023-03-03T08:55:44.910Z,78.27
2023-03-03T08:58:13.410Z,78.49
2023-03-03T09:00:42.171Z,78.17
2023-03-03T09:03:10.690Z,78.52
2023-03-03T09:05:40.767Z,78.07
2023-03-03T09:08:10.837Z,77.93
2023-03-03T09:10:41.314Z,78.38
2023-03-03T09:13:15.395Z,78.11
2023-03-03T09:15:44.444Z,78.28
2023-03-03T09:18:18.319Z,77.75
2023-03-03T09:20:48.134Z,78.24
2023-03-03T09:23:36.004Z,78.32
2023-03-03T09:26:43.409Z,78.32
2023-03-03T09:29:24.831Z,78.47
2023-03-03T09:31:55.613Z,78.05
2023-03-03T09:34:28.156Z,78.17
2023-03-03T09:37:00.100Z,78.17
2023-03-03T09:39:31.938Z,78.10
2023-03-03T09:42:36.849Z,78.68
2023-03-03T09:45:27.608Z,78.75
2023-03-03T09:48:23.031Z,78.43
2023-03-03T09:51:03.499Z,78.24
2023-03-03T09:53:45.986Z,78.57
2023-03-03T09:56:20.495Z,78.95
2023-03-03T09:58:59.307Z,78.53
2023-03-03T10:01:44.667Z,78.27
2023-03-03T10:04:40.586Z,78.69
2023-03-03T10:07:20.570Z,78.49
2023-03-03T10:10:07.336Z,78.46
2023-03-03T10:12:45.284Z,78.18
2023-03-03T10:15:28.542Z,79.01
2023-03-03T10:18:06.393Z,78.67
2023-03-03T10:20:51.076Z,78.65
2023-03-03T10:23:25.302Z,78.98
2023-03-03T10:26:11.112Z,78.29
2023-03-03T10:29:05.202Z,78.30
2023-03-03T10:31:44.276Z,78.09
2023-03-03T10:34:28.659Z,78.57
2023-03-03T10:37:03.122Z,78.26
2023-03-03T10:39:46.507Z,78.18
2023-03-03T10:42:32.115Z,78.26
2023-03-03T10:45:15.865Z,78.16
2023-03-03T10:47:59.244Z,78.33
2023-03-03T10:50:39.230Z,77.81
2023-03-03T10:53:22.163Z,77.71
2023-03-03T10:56:03.925Z,77.47
2023-03-03T10:58:59.854Z,77.57
2023-03-03T11:01:39.247Z,77.59
2023-03-03T11:04:30.180Z,77.11
2023-03-03T11:07:08.189Z,77.34
2023-03-03T11:09:49.264Z,77.05
2023-03-03T11:12:29.590Z,77.03
2023-03-03T11:15:18.363Z,76.80
2023-03-03T11:18:04.294Z,77.17
2023-03-03T11:20:39.780Z,77.01
2023-03-03T11:23:25.714Z,76.95
2023-03-03T11:26:07.379Z,76.45
2023-03-03T11:28:58.302Z,76.26
2023-03-03T11:31:33.485Z,76.14
2023-03-03T11:34:11.803Z,76.29
2023-03-03T11:36:52.295Z,75.96
2023-03-03T11:39:26.673Z,75.99
2023-03-03T11:42:05.742Z,76.00
2023-03-03T11:44:38.731Z,76.07
2023-03-03T11:47:15.566Z,75.92
2023-03-03T11:49:49.898Z,75.73
2023-03-03T11:52:26.849Z,75.74
2023-03-03T11:55:04.071Z,75.52
2023-03-03T11:57:39.543Z,75.69
2023-03-03T12:00:21.677Z,75.59
2023-03-03T12:03:15.327Z,75.25
2023-03-03T12:05:56.037Z,75.45
2023-03-03T12:08:55.220Z,75.42
2023-03-03T12:11:28.514Z,75.53
2023-03-03T12:14:02.347Z,75.30
2023-03-03T12:16:46.626Z,75.02
2023-03-03T12:19:35.439Z,75.24
2023-03-03T12:22:14.820Z,75.25
2023-03-03T12:25:04.462Z,74.94
2023-03-03T12:27:42.246Z,75.14
2023-03-03T12:30:22.302Z,75.02
2023-03-03T12:33:04.024Z,74.78
2023-03-03T12:35:41.897Z,74.81
2023-03-03T12:38:22.463Z,74.74
2023-03-03T12:41:00.512Z,74.51
2023-03-03T12:43:44.992Z,74.25
2023-03-03T12:46:28.539Z,74.38
2023-03-03T12:48:57.731Z,74.08
2023-03-03T12:51:37.416Z,74.20
2023-03-03T12:54:36.844Z,74.22
2023-03-03T12:57:17.652Z,74.37
2023-03-03T12:59:57.838Z,74.17
2023-03-03T13:02:43.087Z,74.02
2023-03-03T13:05:21.578Z,74.17
2023-03-03T13:07:58.873Z,73.85
2023-03-03T13:10:36.903Z,73.74
2023-03-03T13:13:12.607Z,73.78
2023-03-03T13:15:55.410Z,73.47
2023-03-03T13:18:35.652Z,73.48
2023-03-03T13:21:09.543Z,73.46
2023-03-03T13:23:47.345Z,73.13
2023-03-03T13:26:21.918Z,73.01
2023-03-03T13:29:00.945Z,72.99
2023-03-03T13:31:35.805Z,72.74
2023-03-03T13:34:04.551Z,72.90
2023-03-03T13:36:43.366Z,72.91
2023-03-03T13:39:19.259Z,72.92
2023-03-03T13:41:57.014Z,72.64
2023-03-03T13:44:29.759Z,72.71
2023-03-03T13:47:12.402Z,73.09
2023-03-03T13:49:59.849Z,72.83
2023-03-03T13:52:30.517Z,72.20
2023-03-03T13:55:15.582Z,72.08
2023-03-03T13:58:01.140Z,72.60
2023-03-03T14:00:39.725Z,72.30
2023-03-03T14:03:29.183Z,72.06
2023-03-03T14:06:01.061Z,72.33
2023-03-03T14:08:56.967Z,72.19
2023-03-03T14:11:31.013Z,71.86
2023-03-03T14:14:09.485Z,71.46
2023-03-03T14:16:50.443Z,71.67
2023-03-03T14:19:26.330Z,71.86
2023-03-03T14:22:07.004Z,71.51
2023-03-03T14:24:57.843Z,71.26
2023-03-03T14:27:28.089Z,71.52
2023-03-03T14:29:56.479Z,71.00
2023-03-03T14:32:43.211Z,70.98
2023-03-03T14:35:22.396Z,71.16
2023-03-03T14:37:51.861Z,71.26
2023-03-03T14:40:22.367Z,71.47
2023-03-03T14:42:58.357Z,71.30
2023-03-03T14:45:35.774Z,70.81
2023-03-03T14:48:16.447Z,70.82
2023-03-03T14:50:51.422Z,70.88
2023-03-03T14:53:36.083Z,70.95
2023-03-03T14:56:23.707Z,70.37
2023-03-03T14:58:54.247Z,70.84
2023-03-03T15:01:30.871Z,71.07
2023-03-03T15:04:04.342Z,70.93
2023-03-03T15:06:44.016Z,70.96
2023-03-03T15:09:26.653Z,70.82
2023-03-03T15:11:55.884Z,70.81
2023-03-03T15:14:36.466Z,71.38
2023-03-03T15:17:28.911Z,71.37
2023-03-03T15:20:33.431Z,70.99
2023-03-03T15:23:18.545Z,71.40
2023-03-03T15:25:55.007Z,71.72
2023-03-03T15:28:34.102Z,71.52
2023-03-03T15:31:08.331Z,71.35
2023-03-03T15:33:46.965Z,71.30
2023-03-03T15:36:26.265Z,70.99
2023-03-03T15:39:04.498Z,71.03
2023-03-03T15:41:41.894Z,70.91
2023-03-03T15:44:20.814Z,71.20
2023-03-03T15:47:05.210Z,70.93
2023-03-03T15:50:06.178Z,70.71
2023-03-03T15:52:49.059Z,71.12
2023-03-03T15:55:33.329Z,70.77
2023-03-03T15:58:18.191Z,71.19
2023-03-03T16:00:57.306Z,70.72
2023-03-03T16:03:32.138Z,70.86
2023-03-03T16:06:06.708Z,70.90
2023-03-03T16:08:47.764Z,70.92
2023-03-03T16:11:25.075Z,71.04
2023-03-03T16:14:05.605Z,71.14
2023-03-03T16:16:44.319Z,71.15
2023-03-03T16:19:23.132Z,71.17
2023-03-03T16:22:22.539Z,71.10
2023-03-03T16:25:08.040Z,70.81
2023-03-03T16:27:42.406Z,71.05
2023-03-03T16:30:28.989Z,71.20
2023-03-03T16:33:11.230Z,71.30
2023-03-03T16:35:45.806Z,71.09
2023-03-03T16:38:21.743Z,71.52
2023-03-03T16:40:56.310Z,71.37
2023-03-03T16:43:36.088Z,71.17
2023-03-03T16:46:15.934Z,71.41
2023-03-03T16:48:51.809Z,71.53
2023-03-03T16:51:37.475Z,71.62
2023-03-03T16:54:12.613Z,71.34
2023-03-03T16:56:45.548Z,71.58
2023-03-03T16:59:44.038Z,71.58
2023-03-03T17:02:33.419Z,71.56
2023-03-03T17:05:07.301Z,72.06
2023-03-03T17:07:44.960Z,72.43
2023-03-03T17:10:28.098Z,72.39
2023-03-03T17:13:15.741Z,72.48
2023-03-03T17:15:54.502Z,72.52
2023-03-03T17:18:37.099Z,72.70
2023-03-03T17:21:15.774Z,73.01
2023-03-03T17:23:55.522Z,72.94
2023-03-03T17:26:57.026Z,73.39
2023-03-03T17:29:47.569Z,73.20
2023-03-03T17:32:29.947Z,73.32
2023-03-03T17:35:12.668Z,73.47
2023-03-03T17:37:59.654Z,73.64
2023-03-03T17:40:43.276Z,74.20
2023-03-03T17:43:17.535Z,73.86
2023-03-03T17:45:48.718Z,74.03
2023-03-03T17:48:40.367Z,74.28
2023-03-03T17:51:24.700Z,74.29
2023-03-03T17:54:08.468Z,74.78
2023-03-03T17:56:44.073Z,74.45
2023-03-03T17:59:32.283Z,74.48
2023-03-03T18:02:24.116Z,74.56
2023-03-03T18:05:16.971Z,74.73
2023-03-03T18:08:30.286Z,74.82
2023-03-03T18:11:14.948Z,74.56
2023-03-03T18:14:09.376Z,74.57
2023-03-03T18:16:57.684Z,74.54
2023-03-03T18:19:49.327Z,74.92
2023-03-03T18:22:26.471Z,74.40
2023-03-03T18:25:00.413Z,74.44
2023-03-03T18:27:33.350Z,74.70
2023-03-03T18:30:35.270Z,74.59
2023-03-03T18:33:13.054Z,74.78
2023-03-03T18:35:43.931Z,74.89
2023-03-03T18:38:46.006Z,74.78
2023-03-03T18:41:23.817Z,74.83
2023-03-03T18:43:56.460Z,75.37
2023-03-03T18:46:56.134Z,75.35
2023-03-03T18:49:52.457Z,75.15
2023-03-03T18:52:29.864Z,75.00
2023-03-03T18:55:25.978Z,75.75
2023-03-03T18:58:30.087Z,75.72
2023-03-03T19:01:01.628Z,75.58
2023-03-03T19:03:34.283Z,75.50
2023-03-03T19:06:11.778Z,75.97
2023-03-03T19:08:53.828Z,76.04
2023-03-03T19:11:37.492Z,75.84
2023-03-03T19:14:33.222Z,75.81
2023-03-03T19:17:39.958Z,75.68
2023-03-03T19:20:14.304Z,75.70
2023-03-03T19:22:47.974Z,75.65
2023-03-03T19:25:24.685Z,75.60
2023-03-03T19:28:07.151Z,76.23
2023-03-03T19:30:46.210Z,76.03
2023-03-03T19:33:29.369Z,76.13
2023-03-03T19:36:07.725Z,76.47
2023-03-03T19:38:44.145Z,76.03
2023-03-03T19:41:25.856Z,75.92
2023-03-03T19:44:08.727Z,76.44
2023-03-03T19:46:53.955Z,76.20
2023-03-03T19:49:35.351Z,76.67
2023-03-03T19:52:11.741Z,76.58
2023-03-03T19:54:52.346Z,76.47
2023-03-03T19:57:34.666Z,76.38
2023-03-03T20:00:16.480Z,76.14
2023-03-03T20:02:55.923Z,76.30
2023-03-03T20:05:35.872Z,76.34
2023-03-03T20:08:11.975Z,76.22
2023-03-03T20:10:48.844Z,75.88
2023-03-03T20:13:30.159Z,76.39
2023-03-03T20:16:10.572Z,76.71
2023-03-03T20:19:05.889Z,76.69
2023-03-03T20:21:37.065Z,77.22
2023-03-03T20:24:36.737Z,76.71
2023-03-03T20:27:11.206Z,76.61
2023-03-03T20:30:03.826Z,76.57
2023-03-03T20:32:49.685Z,76.57
2023-03-03T20:35:30.082Z,76.16
2023-03-03T20:38:10.681Z,76.76
2023-03-03T20:40:45.260Z,76.55
2023-03-03T20:43:25.249Z,76.01
2023-03-03T20:46:04.230Z,76.11
2023-03-03T20:48:49.988Z,76.06
2023-03-03T20:51:29.692Z,76.20
2023-03-03T20:54:08.105Z,76.55
2023-03-03T20:56:44.630Z,75.88
2023-03-03T20:59:23.247Z,76.14
2023-03-03T21:01:56.779Z,75.78
2023-03-03T21:04:28.901Z,76.11
2023-03-03T21:06:58.226Z,76.18
2023-03-03T21:09:29.924Z,76.04
2023-03-03T21:11:58.957Z,76.29
2023-03-03T21:14:29.614Z,75.70
2023-03-03T21:17:02.540Z,76.30
2023-03-03T21:19:33.669Z,76.06
2023-03-03T21:22:03.053Z,76.54
2023-03-03T21:24:55.575Z,76.51
2023-03-03T21:27:31.651Z,75.81
2023-03-03T21:30:06.163Z,76.09
2023-03-03T21:32:42.987Z,75.91
2023-03-03T21:35:14.954Z,75.92
2023-03-03T21:37:46.474Z,76.20
2023-03-03T21:40:18.255Z,76.08
2023-03-03T21:42:46.642Z,76.17
2023-03-03T21:45:17.268Z,75.71
2023-03-03T21:47:45.682Z,75.83
2023-03-03T21:50:16.008Z,76.38
2023-03-03T21:52:44.427Z,76.44
2023-03-03T21:55:13.079Z,76.15
2023-03-03T21:57:41.827Z,76.77
2023-03-03T22:00:11.780Z,76.94
2023-03-03T22:02:40.139Z,76.98
2023-03-03T22:05:09.150Z,76.53
2023-03-03T22:07:39.105Z,76.84
2023-03-03T22:10:09.938Z,76.56
2023-03-03T22:12:38.396Z,76.30
2023-03-03T22:15:07.734Z,76.39
2023-03-03T22:17:36.109Z,76.68
2023-03-03T22:20:04.885Z,76.61
2023-03-03T22:22:33.276Z,76.67
2023-03-03T22:25:03.278Z,76.10
2023-03-03T22:27:31.717Z,76.67
2023-03-03T22:30:00.184Z,76.62
2023-03-03T22:32:29.765Z,77.19
2023-03-03T22:34:58.191Z,76.97
2023-03-03T22:37:26.528Z,77.03
2023-03-03T22:39:54.894Z,76.62
2023-03-03T22:42:25.056Z,76.77
2023-03-03T22:44:53.695Z,77.07
2023-03-03T22:47:22.061Z,77.44
2023-03-03T22:49:50.325Z,77.30
2023-03-03T22:52:18.628Z,76.87
2023-03-03T22:54:46.996Z,77.22
2023-03-03T22:57:15.308Z,76.93
2023-03-03T22:59:44.970Z,77.19
2023-03-03T23:02:13.346Z,76.92
2023-03-03T23:04:41.679Z,77.19
2023-03-03T23:07:10.762Z,77.03
2023-03-03T23:09:39.232Z,77.13
2023-03-03T23:12:08.240Z,77.84
2023-03-03T23:14:36.637Z,77.36
2023-03-03T23:17:06.321Z,77.56
2023-03-03T23:19:34.696Z,77.65
2023-03-03T23:22:03.016Z,77.44
2023-03-03T23:24:33.052Z,77.10
2023-03-03T23:27:01.420Z,77.12
2023-03-03T23:29:30.479Z,77.52
2023-03-03T23:31:58.931Z,77.29
2023-03-03T23:34:28.593Z,77.22
2023-03-03T23:36:56.910Z,76.97
2023-03-03T23:39:25.293Z,77.32
2023-03-03T23:41:53.572Z,77.13
2023-03-03T23:44:21.984Z,77.11
2023-03-03T23:46:50.372Z,77.39
2023-03-03T23:49:18.718Z,77.58
2023-03-03T23:51:48.571Z,77.31
2023-03-03T23:54:16.950Z,77.78
2023-03-03T23:56:45.214Z,77.42
2023-03-03T23:59:13.597Z,77.85
